Time;durP1;ratioP1;P1;durP2;ratioP2;P2;SDS_P1;SDS_P2;PMS_P1;PMS_P2;Temp;Humidity;BMP_temperature;BMP_pressure;BME280_temperature;BME280_humidity;BME280_pressure;Samples;Min_cycle;Max_cycle;Signal;HPM_P1;HPM_P2
2022/07/12 00:02:18;;;;;;;;;3.75;3.25;;;;;25.09;42.77;101910.50;6154507;23;46254;-93
2022/07/12 00:04:44;;;;;;;;;4.00;4.00;;;;;25.08;42.71;101909.66;6129434;23;50139;-92
2022/07/12 00:07:09;;;;;;;;;3.50;2.75;;;;;25.07;42.96;101918.63;6154871;23;45310;-92
2022/07/12 00:09:34;;;;;;;;;3.00;3.00;;;;;25.01;42.47;101913.72;6153760;23;55340;-92
2022/07/12 00:12:01;;;;;;;;;3.75;2.25;;;;;25.03;42.95;101916.28;6180551;23;59476;-92
2022/07/12 00:14:26;;;;;;;;;4.50;4.50;;;;;24.96;43.17;101917.69;6180924;23;45719;-92
2022/07/12 00:16:52;;;;;;;;;3.75;3.50;;;;;24.90;42.81;101901.16;6154580;23;45337;-92
2022/07/12 00:19:18;;;;;;;;;3.25;3.25;;;;;24.93;43.69;101924.09;6129349;23;49223;-93
2022/07/12 00:21:43;;;;;;;;;4.25;4.25;;;;;24.85;43.51;101915.78;6154375;23;48389;-92
2022/07/12 00:24:10;;;;;;;;;5.25;5.00;;;;;24.88;43.72;101934.22;6123726;23;45852;-92
2022/07/12 00:26:35;;;;;;;;;6.75;6.75;;;;;24.85;43.63;101929.09;6151073;23;45227;-94
2022/07/12 00:29:01;;;;;;;;;6.25;6.25;;;;;24.82;43.59;101929.31;6149409;23;54042;-92
2022/07/12 00:31:26;;;;;;;;;6.25;6.25;;;;;24.77;44.01;101921.66;6124285;23;51418;-92
2022/07/12 00:33:52;;;;;;;;;7.00;7.00;;;;;24.77;43.92;101920.81;6149595;23;45361;-92
2022/07/12 00:36:17;;;;;;;;;8.00;6.00;;;;;24.74;44.31;101916.56;6149706;23;45236;-92
2022/07/12 00:38:42;;;;;;;;;7.50;6.00;;;;;24.70;44.36;101915.94;6150004;23;45443;-93
2022/07/12 00:41:08;;;;;;;;;6.00;6.00;;;;;24.65;44.45;101914.53;6124468;23;73187;-92
2022/07/12 00:43:33;;;;;;;;;5.75;5.75;;;;;24.60;44.63;101914.00;6151645;23;57899;-93
2022/07/12 00:45:58;;;;;;;;;5.75;5.00;;;;;24.53;44.62;101909.13;6150108;23;45272;-93
2022/07/12 00:48:24;;;;;;;;;5.00;5.00;;;;;24.58;44.65;101918.59;6149889;23;56540;-93
2022/07/12 00:50:49;;;;;;;;;5.50;4.00;;;;;24.52;44.67;101911.88;6125294;23;46916;-93
2022/07/12 00:53:18;;;;;;;;;3.00;3.00;;;;;24.49;44.76;101912.91;6149493;23;54411;-93
2022/07/12 00:55:43;;;;;;;;;4.75;3.50;;;;;24.44;44.87;101906.19;6149683;23;45328;-92
2022/07/12 00:58:09;;;;;;;;;4.25;4.25;;;;;24.38;45.69;101893.31;6149641;23;45338;-92
2022/07/12 01:00:34;;;;;;;;;4.75;4.75;;;;;24.41;45.60;101909.09;6148557;23;67555;-94
2022/07/12 01:03:01;;;;;;;;;4.00;3.25;;;;;24.33;45.09;101901.59;6124405;23;57241;-92
2022/07/12 01:05:28;;;;;;;;;4.50;4.50;;;;;24.26;45.14;101897.69;6151145;23;45337;-92
2022/07/12 01:07:54;;;;;;;;;3.75;3.00;;;;;24.22;45.04;101893.50;6124515;23;45555;-93
2022/07/12 01:10:20;;;;;;;;;6.00;4.50;;;;;24.21;45.02;101903.31;6148583;23;47238;-92
2022/07/12 01:12:45;;;;;;;;;5.75;3.25;;;;;24.18;45.40;101902.66;6148952;23;53892;-92
2022/07/12 01:15:11;;;;;;;;;4.00;3.00;;;;;24.17;45.67;101916.94;6149265;23;45393;-92
2022/07/12 01:17:36;;;;;;;;;4.00;4.00;;;;;24.10;45.93;101901.38;6149099;23;45515;-92
2022/07/12 01:20:05;;;;;;;;;4.25;4.00;;;;;24.14;45.99;101912.66;6149456;23;45370;-93
2022/07/12 01:22:31;;;;;;;;;3.25;3.25;;;;;24.12;45.38;101909.25;6148458;23;45610;-92
2022/07/12 01:24:57;;;;;;;;;3.50;3.00;;;;;24.06;46.15;101907.88;6154119;23;45216;-92
2022/07/12 01:27:23;;;;;;;;;3.00;3.00;;;;;24.03;45.83;101904.56;6154193;23;45334;-92
2022/07/12 01:29:48;;;;;;;;;4.50;4.00;;;;;23.96;45.65;101890.84;6178588;23;47940;-92
2022/07/12 01:32:26;;;;;;;;;3.00;2.75;;;;;24.02;45.71;101890.41;6153966;23;45752;-93
2022/07/12 01:34:57;;;;;;;;;3.00;3.00;;;;;23.96;45.80;101882.88;6156695;23;45379;-92
2022/07/12 01:37:24;;;;;;;;;3.00;2.50;;;;;23.92;45.88;101884.00;6180694;23;45467;-93
2022/07/12 01:39:54;;;;;;;;;3.75;2.00;;;;;23.93;46.22;101883.91;6128749;23;47062;-92
2022/07/12 01:42:23;;;;;;;;;3.25;2.50;;;;;23.93;46.01;101894.53;6154021;23;46027;-93
2022/07/12 01:44:50;;;;;;;;;2.50;2.50;;;;;23.92;46.17;101890.19;6178980;23;45410;-93
2022/07/12 01:47:19;;;;;;;;;4.00;4.00;;;;;23.91;46.02;101890.28;6180529;23;45097;-92
2022/07/12 01:49:44;;;;;;;;;5.75;3.00;;;;;23.88;46.48;101898.47;6153264;23;47002;-93
2022/07/12 01:52:10;;;;;;;;;2.50;2.50;;;;;23.87;46.76;101905.59;6179643;23;53324;-93
2022/07/12 01:54:35;;;;;;;;;3.00;3.00;;;;;23.85;46.37;101907.50;6129183;23;45310;-93
2022/07/12 01:57:04;;;;;;;;;5.00;3.00;;;;;23.83;46.29;101900.56;6129043;23;47804;-93
2022/07/12 01:59:30;;;;;;;;;2.00;2.00;;;;;23.82;47.08;101902.38;6154181;23;45565;-93
2022/07/12 02:01:56;;;;;;;;;3.75;3.75;;;;;23.80;46.94;101898.97;6154030;23;45435;-92
2022/07/12 02:04:22;;;;;;;;;4.25;3.75;;;;;23.79;46.00;101907.91;6153511;23;45525;-92
2022/07/12 02:06:48;;;;;;;;;4.25;4.00;;;;;23.73;46.44;101895.84;6128943;23;45516;-92
2022/07/12 02:09:13;;;;;;;;;5.75;3.00;;;;;23.69;46.75;101898.81;6128792;23;47311;-92
2022/07/12 02:11:39;;;;;;;;;3.00;3.00;;;;;23.69;46.81;101904.97;6128769;23;45383;-93
2022/07/12 02:14:05;;;;;;;;;3.50;3.25;;;;;23.61;46.78;101893.16;6129239;23;45230;-92
2022/07/12 02:16:31;;;;;;;;;3.00;3.00;;;;;23.60;47.07;101894.09;6180307;23;45284;-92
2022/07/12 02:18:57;;;;;;;;;4.00;3.25;;;;;23.62;47.10;101897.50;6153536;23;46372;-92
2022/07/12 02:21:22;;;;;;;;;3.50;3.50;;;;;23.56;47.12;101891.63;6129317;23;45601;-92
2022/07/12 02:23:47;;;;;;;;;2.50;2.50;;;;;23.54;47.50;101893.53;6154847;23;45427;-92
2022/07/12 02:26:13;;;;;;;;;4.00;4.00;;;;;23.49;47.77;101890.31;6153991;23;57982;-92
2022/07/12 02:28:38;;;;;;;;;3.75;3.75;;;;;23.50;47.09;101908.00;6153945;23;62910;-92
2022/07/12 02:31:04;;;;;;;;;4.50;4.00;;;;;23.43;47.66;101897.88;6154791;23;45240;-93
2022/07/12 02:33:29;;;;;;;;;3.50;2.75;;;;;23.44;47.64;101903.09;6155070;23;45629;-92
2022/07/12 02:35:55;;;;;;;;;2.75;2.75;;;;;23.41;47.56;101897.97;6154348;23;52680;-92
2022/07/12 02:38:21;;;;;;;;;3.00;3.00;;;;;23.41;47.41;101900.63;6154903;23;46978;-92
2022/07/12 02:40:53;;;;;;;;;4.00;4.00;;;;;23.38;48.36;101893.72;6154911;23;45803;-92
2022/07/12 02:43:26;;;;;;;;;3.00;3.00;;;;;23.34;47.65;101891.34;6156370;23;45268;-91
2022/07/12 02:45:53;;;;;;;;;5.50;4.50;;;;;23.34;47.92;101908.13;6155022;23;45527;-92
2022/07/12 02:48:18;;;;;;;;;5.50;3.00;;;;;23.33;47.85;101914.41;6181014;23;46682;-92
2022/07/12 02:50:44;;;;;;;;;3.00;2.75;;;;;23.32;48.27;101920.66;6130296;23;45869;-91
2022/07/12 02:53:10;;;;;;;;;5.75;4.25;;;;;23.29;48.16;101910.25;6154935;23;50393;-92
2022/07/12 02:55:36;;;;;;;;;4.25;4.25;;;;;23.22;48.15;101908.94;6130256;23;45297;-92
2022/07/12 02:58:02;;;;;;;;;6.50;5.00;;;;;23.23;49.03;101915.09;6130314;23;48030;-92
2022/07/12 03:00:28;;;;;;;;;3.75;3.50;;;;;23.20;48.39;101910.84;6130208;23;45690;-92
2022/07/12 03:02:54;;;;;;;;;6.00;4.00;;;;;23.16;49.24;101912.81;6130650;23;45340;-92
2022/07/12 03:05:19;;;;;;;;;5.00;3.75;;;;;23.17;48.71;101927.78;6155099;23;45512;-92
2022/07/12 03:07:45;;;;;;;;;4.75;4.50;;;;;23.15;48.40;101910.25;6129030;23;66014;-92
2022/07/12 03:10:10;;;;;;;;;4.00;4.00;;;;;23.09;48.73;101906.19;6181025;23;45365;-93
2022/07/12 03:12:36;;;;;;;;;5.00;5.00;;;;;23.11;49.01;101917.56;6154938;23;45268;-92
2022/07/12 03:15:02;;;;;;;;;4.00;4.00;;;;;23.06;48.66;101913.50;6155123;23;45317;-92
2022/07/12 03:17:27;;;;;;;;;4.00;4.00;;;;;23.07;48.86;101921.38;6129585;23;46967;-91
2022/07/12 03:19:53;;;;;;;;;7.75;4.75;;;;;23.03;48.99;101911.00;6129226;23;50755;-92
2022/07/12 03:22:18;;;;;;;;;8.75;6.75;;;;;23.00;48.75;101910.25;6153954;23;48889;-92
2022/07/12 03:24:43;;;;;;;;;7.50;6.75;;;;;22.94;48.92;101901.81;6128714;23;63124;-92
2022/07/12 03:27:09;;;;;;;;;6.00;6.00;;;;;22.95;49.23;101912.31;6129102;23;67076;-92
2022/07/12 03:29:35;;;;;;;;;7.50;6.50;;;;;22.90;49.41;101911.78;6129668;23;45425;-93
2022/07/12 03:32:00;;;;;;;;;7.50;6.75;;;;;22.87;49.21;101914.63;6180946;23;45312;-92
2022/07/12 03:34:26;;;;;;;;;7.50;6.75;;;;;22.81;49.17;101899.09;6154145;23;52603;-92
2022/07/12 03:36:52;;;;;;;;;9.25;7.00;;;;;22.78;49.39;101908.06;6154530;23;47990;-92
2022/07/12 03:39:17;;;;;;;;;8.50;7.00;;;;;22.72;49.33;101908.47;6154473;23;45439;-92
2022/07/12 03:41:42;;;;;;;;;6.75;6.75;;;;;22.74;49.24;101913.69;6154463;23;45451;-92
2022/07/12 03:44:08;;;;;;;;;8.50;6.50;;;;;22.67;49.53;101918.50;6154502;23;45387;-92
2022/07/12 03:46:33;;;;;;;;;9.00;8.75;;;;;22.64;49.73;101913.41;6153875;23;56167;-92
2022/07/12 03:48:59;;;;;;;;;9.50;7.75;;;;;22.63;49.82;101924.94;6153804;23;58563;-93
2022/07/12 03:51:25;;;;;;;;;8.00;8.00;;;;;22.61;49.88;101925.03;6154649;23;45432;-93
2022/07/12 03:53:50;;;;;;;;;11.75;6.75;;;;;22.61;49.50;101933.00;6129570;23;45563;-92
2022/07/12 03:59:00;;;;;;;;;10.25;8.50;;;;;22.54;50.47;101942.28;6159151;23;45728;-92
2022/07/12 04:01:25;;;;;;;;;7.00;7.00;;;;;22.47;50.47;101925.03;6153843;23;53166;-94
2022/07/12 04:03:50;;;;;;;;;8.75;6.50;;;;;22.51;50.54;101944.25;6129199;23;50062;-93
2022/07/12 04:06:16;;;;;;;;;6.25;4.25;;;;;22.45;50.63;101928.72;6129126;23;54724;-92
2022/07/12 04:08:41;;;;;;;;;8.25;7.50;;;;;22.42;51.12;101935.06;6154189;23;45353;-93
2022/07/12 04:11:06;;;;;;;;;8.75;6.50;;;;;22.44;50.21;101943.78;6153569;23;63341;-92
2022/07/12 04:13:33;;;;;;;;;6.00;5.25;;;;;22.42;50.57;101935.06;6154746;23;45652;-92
2022/07/12 04:15:58;;;;;;;;;6.50;6.50;;;;;22.38;51.12;101937.06;6129532;23;47277;-91
2022/07/12 04:18:24;;;;;;;;;6.00;6.00;;;;;22.38;50.90;101949.44;6154411;23;45254;-92
2022/07/12 04:20:49;;;;;;;;;5.50;5.50;;;;;22.30;50.54;101939.28;6154599;23;45303;-92
2022/07/12 04:23:14;;;;;;;;;5.50;5.50;;;;;22.31;51.02;101945.47;6178988;23;48377;-93
2022/07/12 04:25:40;;;;;;;;;10.75;5.75;;;;;22.32;50.87;101942.72;6154098;23;47070;-93
2022/07/12 04:28:05;;;;;;;;;7.25;6.50;;;;;22.33;51.01;101952.38;6154577;23;45359;-92
2022/07/12 04:30:31;;;;;;;;;9.00;5.75;;;;;22.29;51.15;101948.22;6129568;23;52655;-92
2022/07/12 04:32:56;;;;;;;;;8.50;5.75;;;;;22.32;51.02;101947.16;6180846;23;45340;-92
2022/07/12 04:35:21;;;;;;;;;5.50;5.25;;;;;22.32;50.94;101950.66;6154168;23;55437;-92
2022/07/12 04:37:47;;;;;;;;;5.50;5.00;;;;;22.32;51.29;101949.81;6154265;23;45320;-92
2022/07/12 04:40:12;;;;;;;;;7.50;6.25;;;;;22.30;51.36;101947.25;6153656;23;66764;-92
2022/07/12 04:42:38;;;;;;;;;6.75;6.00;;;;;22.33;51.04;101954.19;6154469;23;45348;-93
2022/07/12 04:45:03;;;;;;;;;8.00;6.00;;;;;22.31;51.22;101951.63;6128960;23;48133;-92
2022/07/12 04:47:29;;;;;;;;;8.25;8.00;;;;;22.31;50.85;101951.63;6129760;23;45355;-92
2022/07/12 04:49:54;;;;;;;;;9.50;8.00;;;;;22.28;51.59;101950.94;6154566;23;45421;-92
2022/07/12 04:52:19;;;;;;;;;10.00;6.75;;;;;22.27;51.32;101955.41;6154561;23;45269;-93
2022/07/12 04:54:45;;;;;;;;;9.00;6.75;;;;;22.30;51.37;101964.97;6153831;23;47876;-92
2022/07/12 04:57:10;;;;;;;;;9.75;7.25;;;;;22.29;51.27;101960.59;6128541;23;66881;-92
2022/07/12 04:59:35;;;;;;;;;6.25;6.00;;;;;22.31;51.50;101958.75;6153075;23;63033;-93
2022/07/12 05:02:01;;;;;;;;;9.75;6.75;;;;;22.34;51.41;101964.72;6154484;23;45631;-93
2022/07/12 05:04:27;;;;;;;;;7.75;7.00;;;;;22.35;51.62;101962.91;6154533;23;45716;-91
2022/07/12 05:06:52;;;;;;;;;7.50;6.75;;;;;22.34;51.26;101964.72;6153476;23;51887;-91
2022/07/12 05:09:18;;;;;;;;;5.50;4.25;;;;;22.38;51.66;101968.00;6180171;23;48716;-91
2022/07/12 05:11:43;;;;;;;;;8.00;6.00;;;;;22.36;50.75;101964.59;6129264;23;45444;-92
2022/07/12 05:14:09;;;;;;;;;6.75;6.50;;;;;22.44;51.52;101967.66;6128040;23;48166;-88
2022/07/12 05:16:34;;;;;;;;;5.75;4.25;;;;;22.45;51.05;101968.50;6128865;23;45259;-91
2022/07/12 05:19:01;;;;;;;;;6.25;6.25;;;;;22.50;51.68;101977.06;6178996;23;57079;-87
2022/07/12 05:21:26;;;;;;;;;9.50;6.75;;;;;22.53;51.31;101974.19;6153158;23;45541;-85
2022/07/12 05:23:52;;;;;;;;;5.75;5.25;;;;;22.54;51.43;101978.56;6151120;23;55386;-86
2022/07/12 05:26:18;;;;;;;;;8.50;6.25;;;;;22.58;50.87;101986.28;6152596;23;45746;-85
2022/07/12 05:28:44;;;;;;;;;8.00;6.50;;;;;22.57;50.97;101981.06;6151964;23;45311;-87
2022/07/12 05:31:10;;;;;;;;;8.50;6.50;;;;;22.58;50.30;101985.41;6179434;23;45294;-86
2022/07/12 05:33:35;;;;;;;;;7.25;6.25;;;;;22.63;51.36;101995.75;6152264;23;47073;-87
2022/07/12 05:36:01;;;;;;;;;10.25;8.00;;;;;22.66;51.58;101996.44;6127392;23;64003;-89
2022/07/12 05:38:26;;;;;;;;;8.25;6.50;;;;;22.65;51.00;101991.22;6179836;23;45221;-88
2022/07/12 05:40:52;;;;;;;;;6.75;5.75;;;;;22.69;51.07;101998.03;6152929;23;45843;-88
2022/07/12 05:43:17;;;;;;;;;7.50;6.50;;;;;22.67;50.61;101990.16;6153149;23;46031;-88
2022/07/12 05:45:43;;;;;;;;;9.25;5.00;;;;;22.67;50.85;101992.81;6179095;23;45244;-87
2022/07/12 05:48:08;;;;;;;;;7.75;5.50;;;;;22.68;50.79;101991.88;6152449;23;46898;-87
2022/07/12 05:50:33;;;;;;;;;7.25;7.00;;;;;22.70;50.53;101999.75;6152133;23;56958;-88
2022/07/12 05:55:44;;;;;;;;;5.25;5.25;;;;;22.71;50.34;101999.63;6157515;23;45681;-87
2022/07/12 05:58:10;;;;;;;;;8.25;6.50;;;;;22.72;50.47;102011.97;6154836;23;45340;-86
2022/07/12 06:00:36;;;;;;;;;5.50;4.50;;;;;22.69;50.50;102008.66;6179742;23;45557;-86
2022/07/12 06:03:01;;;;;;;;;5.00;5.00;;;;;22.71;50.04;102009.41;6181656;23;45383;-87
2022/07/12 06:05:27;;;;;;;;;7.75;5.00;;;;;22.73;50.11;102020.78;6155033;23;45329;-86
2022/07/12 06:07:52;;;;;;;;;7.00;6.25;;;;;22.70;50.32;102015.69;6155522;23;45366;-87
2022/07/12 06:10:18;;;;;;;;;7.25;5.25;;;;;22.70;51.08;102010.38;6179182;23;45279;-85
2022/07/12 06:12:43;;;;;;;;;7.50;5.00;;;;;22.72;51.63;102019.09;6179884;23;49553;-86
2022/07/12 06:15:09;;;;;;;;;5.75;4.25;;;;;22.69;51.01;102020.09;6180059;23;45512;-86
2022/07/12 06:17:35;;;;;;;;;7.25;6.00;;;;;22.68;50.81;102018.41;6154977;23;45357;-86
2022/07/12 06:20:00;;;;;;;;;4.50;4.50;;;;;22.68;50.95;102022.84;6154069;23;45322;-86
2022/07/12 06:22:27;;;;;;;;;10.50;6.00;;;;;22.72;51.00;102025.25;6180504;23;46951;-96
2022/07/12 06:24:52;;;;;;;;;4.00;4.00;;;;;22.71;50.94;102018.22;6181991;23;45295;-96
2022/07/12 06:27:17;;;;;;;;;6.00;6.00;;;;;22.76;50.95;102024.09;6156879;23;45473;-96
2022/07/12 06:29:47;;;;;;;;;5.50;5.50;;;;;22.80;50.63;102019.47;6187048;23;45214;-95
2022/07/12 06:32:15;;;;;;;;;5.00;5.00;;;;;22.84;50.86;102017.47;6182484;23;45197;-96
2022/07/12 06:34:41;;;;;;;;;4.25;4.25;;;;;22.86;50.66;102018.25;6182262;23;45391;-96
2022/07/12 06:37:08;;;;;;;;;6.00;4.75;;;;;22.90;50.69;102022.41;6156173;23;45346;-89
2022/07/12 06:39:34;;;;;;;;;4.75;4.75;;;;;22.95;50.65;102021.19;6155368;23;45422;-91
2022/07/12 06:42:03;;;;;;;;;7.00;6.00;;;;;23.02;50.29;102020.84;6130114;23;47238;-94
2022/07/12 06:44:31;;;;;;;;;8.00;6.75;;;;;23.10;49.99;102023.88;6157034;23;45889;-91
2022/07/12 06:49:52;;;;;;;;;7.75;7.75;;;;;23.12;50.96;102022.00;6213084;22;45297;-95
2022/07/12 06:52:18;;;;;;;;;6.50;5.75;;;;;23.15;50.56;102016.50;6185702;22;45330;-95
2022/07/12 06:54:43;;;;;;;;;8.50;5.50;;;;;23.22;50.65;102030.25;6159552;22;45301;-91
2022/07/12 06:57:09;;;;;;;;;6.00;6.00;;;;;23.23;50.08;102023.97;6160975;22;45330;-96
2022/07/12 06:59:37;;;;;;;;;7.25;6.75;;;;;23.27;50.40;102034.34;6170718;22;45280;-96
2022/07/12 07:02:04;;;;;;;;;5.00;5.00;;;;;23.29;49.76;102019.16;6187060;22;46107;-93
2022/07/12 07:04:29;;;;;;;;;5.50;4.75;;;;;23.38;49.89;102031.88;6185962;22;45229;-90
2022/07/12 07:06:54;;;;;;;;;6.50;6.25;;;;;23.41;50.45;102037.94;6185634;22;45266;-92
2022/07/12 07:09:20;;;;;;;;;8.00;7.75;;;;;23.44;49.63;102037.72;6185280;22;45246;-90
2022/07/12 07:11:45;;;;;;;;;7.00;6.00;;;;;23.50;49.97;102037.34;6186625;22;47084;-90
2022/07/12 07:14:11;;;;;;;;;6.50;5.75;;;;;23.56;49.70;102034.28;6161604;22;45622;-89
2022/07/12 07:16:36;;;;;;;;;5.00;4.75;;;;;23.59;49.39;102031.47;6160872;22;45360;-88
2022/07/12 07:19:02;;;;;;;;;6.50;5.50;;;;;23.69;49.74;102034.38;6187345;22;45304;-90
2022/07/12 07:21:28;;;;;;;;;8.00;6.75;;;;;23.74;49.40;102029.63;6186343;22;45440;-90
2022/07/12 07:24:01;;;;;;;;;8.00;6.50;;;;;23.78;49.45;102029.31;6184358;22;45335;-90
2022/07/12 07:26:26;;;;;;;;;7.50;7.00;;;;;23.84;49.43;102028.09;6184359;22;45286;-89
2022/07/12 07:31:37;;;;;;;;;7.50;6.25;;;;;24.02;48.59;102042.00;6188875;22;45450;-88
2022/07/12 07:34:03;;;;;;;;;6.50;6.50;;;;;24.10;48.50;102045.00;6188390;22;45795;-92
2022/07/12 07:36:28;;;;;;;;;5.75;5.75;;;;;24.16;48.44;102041.09;6186967;22;45387;-92
2022/07/12 07:38:53;;;;;;;;;8.75;7.25;;;;;24.24;48.24;102043.25;6212800;22;45294;-95
2022/07/12 07:41:19;;;;;;;;;7.50;6.75;;;;;24.31;48.85;102045.41;6219023;22;46198;-94
2022/07/12 07:43:45;;;;;;;;;8.25;7.50;;;;;24.38;48.02;102040.50;6190303;22;53209;-96
2022/07/12 07:46:20;;;;;;;;;8.00;7.25;;;;;24.39;47.61;102030.75;6223233;22;44697;-96
2022/07/12 07:49:24;;;;;;;;;8.50;7.00;;;;;24.47;47.51;102034.56;6202510;23;44766;-96
2022/07/12 07:56:21;;;;;;;;;6.75;4.75;;;;;24.67;47.45;102040.41;6148165;23;44891;-96
2022/07/12 08:00:01;;;;;;;;;8.25;7.25;;;;;24.77;47.14;102053.94;6120771;23;44811;-96
2022/07/12 08:08:44;;;;;;;;;6.50;6.25;;;;;24.98;46.54;102047.13;6209103;22;45470;-96
2022/07/12 08:11:11;;;;;;;;;10.00;7.50;;;;;25.04;46.54;102049.38;6210852;23;44758;-96
2022/07/12 08:13:40;;;;;;;;;6.75;5.75;;;;;25.10;46.43;102056.06;6209861;23;44719;-96
2022/07/12 08:16:05;;;;;;;;;7.50;7.00;;;;;25.17;46.24;102053.84;6209703;23;45040;-96
2022/07/12 08:18:31;;;;;;;;;8.00;8.00;;;;;25.20;45.60;102045.63;6210364;23;44631;-96
2022/07/12 08:20:56;;;;;;;;;7.00;7.00;;;;;25.26;45.91;102045.25;6206875;23;44589;-96
2022/07/12 08:23:25;;;;;;;;;7.00;7.00;;;;;25.38;45.79;102059.50;6185317;22;44832;-96
2022/07/12 08:26:37;;;;;;;;;8.25;7.00;;;;;25.45;46.13;102061.63;6184967;23;45566;-96
2022/07/12 08:34:34;;;;;;;;;7.00;6.00;;;;;25.59;45.04;102057.94;6176899;22;46064;-88
2022/07/12 08:36:59;;;;;;;;;8.25;7.00;;;;;25.66;45.13;102055.69;6160727;22;47836;-89
2022/07/12 08:39:24;;;;;;;;;8.50;6.25;;;;;25.72;44.96;102049.91;6186009;22;45272;-88
2022/07/12 08:41:50;;;;;;;;;12.50;6.25;;;;;25.77;44.87;102054.94;6186370;22;45312;-88
2022/07/12 08:44:15;;;;;;;;;6.00;6.00;;;;;25.82;44.75;102048.28;6159952;22;45415;-87
2022/07/12 08:46:41;;;;;;;;;8.00;7.25;;;;;25.88;44.56;102058.50;6160403;22;48952;-88
2022/07/12 08:49:09;;;;;;;;;7.00;6.00;;;;;25.97;44.30;102053.50;6161176;22;45277;-89
2022/07/12 08:51:35;;;;;;;;;6.50;5.75;;;;;26.06;44.20;102056.34;6161278;22;45278;-88
2022/07/12 08:54:13;;;;;;;;;6.50;5.00;;;;;26.15;44.18;102059.28;6185636;22;45492;-89
2022/07/12 08:56:41;;;;;;;;;8.25;6.00;;;;;26.21;43.56;102054.34;6159969;22;48078;-87
2022/07/12 08:59:15;;;;;;;;;6.00;6.00;;;;;26.34;43.73;102054.28;6186278;22;45253;-89
2022/07/12 09:01:41;;;;;;;;;3.50;3.50;;;;;26.45;42.86;102046.31;6184850;22;45332;-88
2022/07/12 09:04:15;;;;;;;;;5.75;4.25;;;;;26.56;42.34;102048.16;6186560;22;45269;-89
2022/07/12 09:06:41;;;;;;;;;3.75;3.75;;;;;26.67;42.28;102049.19;6160288;22;48765;-89
2022/07/12 09:09:08;;;;;;;;;4.75;4.00;;;;;26.72;42.58;102045.19;6212822;22;45182;-89
2022/07/12 09:11:38;;;;;;;;;6.25;5.00;;;;;26.76;42.18;102051.16;6186174;22;45266;-88
2022/07/12 09:14:07;;;;;;;;;5.25;4.75;;;;;26.81;42.07;102054.31;6213048;22;45292;-89
2022/07/12 09:16:32;;;;;;;;;4.75;4.75;;;;;26.87;41.27;102058.34;6185478;22;46251;-88
2022/07/12 09:19:27;;;;;;;;;6.00;4.00;;;;;26.97;41.71;102056.66;6212096;22;45253;-89
2022/07/12 09:21:53;;;;;;;;;6.00;4.25;;;;;27.04;41.23;102058.75;6135286;22;45307;-88
2022/07/12 09:24:20;;;;;;;;;6.75;3.00;;;;;27.11;40.77;102056.41;6160946;22;45446;-89
2022/07/12 09:26:46;;;;;;;;;4.25;3.75;;;;;27.20;40.54;102057.53;6186423;22;46282;-89
2022/07/12 09:29:13;;;;;;;;;4.25;3.00;;;;;27.25;39.98;102058.03;6186204;22;45239;-89
2022/07/12 09:37:21;;;;;;;;;5.00;4.00;;;;;27.45;39.35;102061.81;6212959;22;45397;-87
2022/07/12 09:39:47;;;;;;;;;3.00;3.00;;;;;27.50;39.05;102064.94;6185816;22;45260;-85
2022/07/12 09:42:13;;;;;;;;;6.00;4.00;;;;;27.55;38.98;102059.25;6184561;22;45426;-87
2022/07/12 09:44:40;;;;;;;;;4.25;4.25;;;;;27.58;38.65;102067.88;6185262;22;45213;-89
2022/07/12 09:47:15;;;;;;;;;5.25;4.00;;;;;27.69;38.61;102066.13;6160203;22;48201;-89
2022/07/12 09:49:43;;;;;;;;;5.75;5.00;;;;;27.74;36.87;102064.78;6186500;22;45577;-86
2022/07/12 09:52:15;;;;;;;;;4.25;3.00;;;;;27.84;37.31;102064.03;6185657;22;45405;-87
2022/07/12 09:54:41;;;;;;;;;3.00;3.00;;;;;27.89;37.08;102061.84;6185710;22;45378;-88
2022/07/12 09:57:15;;;;;;;;;5.75;4.00;;;;;28.00;36.63;102060.00;6211300;22;45874;-86
2022/07/12 09:59:41;;;;;;;;;6.75;4.75;;;;;28.14;36.10;102064.25;6185412;22;45745;-90
2022/07/12 10:02:07;;;;;;;;;2.25;2.25;;;;;28.29;36.01;102064.78;6159771;22;68638;-88
2022/07/12 10:04:32;;;;;;;;;4.00;4.00;;;;;28.41;35.14;102060.22;6160264;22;46121;-90
2022/07/12 10:06:58;;;;;;;;;3.75;3.50;;;;;28.51;35.88;102062.97;6212356;22;46714;-90
2022/07/12 10:09:25;;;;;;;;;4.00;4.00;;;;;28.58;36.03;102061.50;6185418;22;45343;-88
2022/07/12 10:11:54;;;;;;;;;4.25;4.25;;;;;28.66;35.82;102067.06;6186918;22;45351;-88
2022/07/12 10:14:21;;;;;;;;;3.00;3.00;;;;;28.71;34.80;102056.78;6190023;22;45205;-90
2022/07/12 10:16:50;;;;;;;;;2.75;2.50;;;;;28.74;34.76;102059.22;6190867;22;46551;-91
2022/07/12 10:19:26;;;;;;;;;1.75;1.75;;;;;28.77;33.88;102058.13;6188353;22;45300;-95
2022/07/12 10:21:56;;;;;;;;;4.25;3.00;;;;;28.79;34.45;102053.47;6192193;22;45262;-91
2022/07/12 10:24:45;;;;;;;;;2.75;2.75;;;;;28.83;33.94;102052.22;6164176;22;45461;-92
2022/07/12 10:27:13;;;;;;;;;8.00;6.50;;;;;28.85;34.49;102057.47;6170723;22;47036;-95
2022/07/12 10:29:41;;;;;;;;;8.25;7.00;;;;;28.89;34.39;102053.53;6185728;22;45294;-90
2022/07/12 10:32:35;;;;;;;;;4.00;3.25;;;;;28.94;33.84;102056.66;6185089;22;45398;-94
2022/07/12 10:35:07;;;;;;;;;5.75;4.00;;;;;29.03;34.40;102055.00;6185235;22;45258;-94
2022/07/12 10:37:34;;;;;;;;;0.50;0.50;;;;;29.09;33.71;102060.69;6218527;22;46196;-93
2022/07/12 10:40:13;;;;;;;;;5.00;3.50;;;;;29.18;33.63;102063.56;6191859;22;45275;-90
2022/07/12 10:42:40;;;;;;;;;4.25;3.00;;;;;29.25;33.85;102062.03;6192409;22;45268;-88
2022/07/12 10:45:16;;;;;;;;;2.00;2.00;;;;;29.32;32.90;102061.34;6220645;22;45438;-92
2022/07/12 10:47:54;;;;;;;;;5.00;2.75;;;;;29.41;32.77;102050.81;6157849;22;46929;-91
2022/07/12 10:50:48;;;;;;;;;6.25;2.50;;;;;29.47;32.98;102063.69;6187228;22;45353;-96
2022/07/12 10:53:20;;;;;;;;;2.25;2.25;;;;;29.53;32.45;102060.44;6213867;22;45276;-91
2022/07/12 10:56:04;;;;;;;;;2.00;1.00;;;;;29.61;31.86;102057.94;6213737;22;45253;-92
2022/07/12 10:58:34;;;;;;;;;2.50;2.00;;;;;29.66;32.01;102052.16;6213821;22;46772;-91
2022/07/12 11:01:05;;;;;;;;;3.25;2.00;;;;;29.71;31.37;102053.44;6186192;22;45241;-87
2022/07/12 11:03:37;;;;;;;;;2.00;2.00;;;;;29.77;30.75;102051.22;6213091;22;45244;-91
2022/07/12 11:06:05;;;;;;;;;3.00;2.00;;;;;29.85;30.30;102049.53;6185853;22;45336;-92
2022/07/12 11:09:05;;;;;;;;;3.00;2.00;;;;;30.00;29.61;102049.13;6161128;22;47288;-92
2022/07/12 11:11:43;;;;;;;;;2.75;2.50;;;;;30.10;30.12;102036.56;6187731;22;45313;-91
2022/07/12 11:14:08;;;;;;;;;2.00;2.00;;;;;30.21;30.13;102040.94;6162195;22;45293;-90
2022/07/12 11:16:34;;;;;;;;;3.00;3.00;;;;;30.30;30.78;102032.03;6161104;22;45594;-91
2022/07/12 11:19:06;;;;;;;;;3.00;2.25;;;;;30.42;29.47;102038.97;6186718;22;47034;-90
2022/07/12 11:21:55;;;;;;;;;4.00;2.50;;;;;30.57;29.38;102036.69;6188303;22;45372;-89
2022/07/12 11:24:22;;;;;;;;;3.00;3.00;;;;;30.72;28.59;102045.16;6207562;22;45734;-89
2022/07/12 11:26:48;;;;;;;;;3.00;2.25;;;;;30.90;29.84;102041.69;6185768;22;45613;-88
2022/07/12 11:29:14;;;;;;;;;4.00;3.00;;;;;30.95;29.22;102042.97;6158687;22;48423;-87
2022/07/12 11:31:39;;;;;;;;;3.50;3.00;;;;;30.94;28.37;102037.75;6184981;22;45582;-87
2022/07/12 11:34:21;;;;;;;;;3.75;3.00;;;;;30.92;28.10;102039.72;6184635;22;58258;-86
2022/07/12 11:36:54;;;;;;;;;2.75;2.50;;;;;30.94;28.13;102032.38;6185504;22;45285;-87
2022/07/12 11:39:41;;;;;;;;;2.75;2.75;;;;;31.01;28.28;102031.63;6185757;22;46503;-86
2022/07/12 11:42:07;;;;;;;;;2.50;2.50;;;;;31.10;28.13;102040.66;6185415;22;45266;-87
2022/07/12 11:44:52;;;;;;;;;2.25;2.25;;;;;31.21;28.28;102036.94;6185504;22;45336;-88
2022/07/12 11:47:20;;;;;;;;;2.00;2.00;;;;;31.35;27.79;102030.19;6161487;22;45292;-87
2022/07/12 11:49:54;;;;;;;;;4.00;3.25;;;;;31.49;26.78;102023.50;6185566;22;45552;-87
2022/07/12 11:52:23;;;;;;;;;2.00;2.00;;;;;31.59;26.43;102024.28;6212338;22;45615;-87
2022/07/12 11:54:50;;;;;;;;;2.00;2.00;;;;;31.65;27.41;102023.69;6212433;22;45290;-87
2022/07/12 11:57:23;;;;;;;;;4.00;4.00;;;;;31.67;26.27;102024.38;6212627;22;45386;-87
2022/07/12 11:59:52;;;;;;;;;4.00;4.00;;;;;31.68;26.16;102017.97;6159051;22;47296;-87
2022/07/12 12:02:18;;;;;;;;;3.00;3.00;;;;;31.76;26.36;102020.78;6185952;22;45731;-87